sensor_id;sensor_type;location;lat;lon;timestamp;P1;durP1;ratioP1;P2;durP2;ratioP2
5428;SDS011;2737;52.386;9.980;2022-10-31T00:00:06;10.63;;;4.63;;
5428;SDS011;2737;52.386;9.980;2022-10-31T00:02:34;12.73;;;4.27;;
5428;SDS011;2737;52.386;9.980;2022-10-31T00:05:01;12.07;;;4.20;;
5428;SDS011;2737;52.386;9.980;2022-10-31T00:07:29;10.70;;;4.57;;
5428;SDS011;2737;52.386;9.980;2022-10-31T00:09:56;7.77;;;4.60;;
5428;SDS011;2737;52.386;9.980;2022-10-31T00:12:23;10.80;;;4.20;;
5428;SDS011;2737;52.386;9.980;2022-10-31T00:14:51;14.63;;;5.23;;
5428;SDS011;2737;52.386;9.980;2022-10-31T00:17:18;9.90;;;5.20;;
5428;SDS011;2737;52.386;9.980;2022-10-31T00:19:45;13.77;;;4.50;;
5428;SDS011;2737;52.386;9.980;2022-10-31T00:22:12;8.13;;;4.60;;
5428;SDS011;2737;52.386;9.980;2022-10-31T00:24:41;11.40;;;4.60;;
5428;SDS011;2737;52.386;9.980;2022-10-31T00:27:08;14.50;;;5.03;;
5428;SDS011;2737;52.386;9.980;2022-10-31T00:29:35;11.47;;;5.33;;
5428;SDS011;2737;52.386;9.980;2022-10-31T00:32:02;21.17;;;5.37;;
5428;SDS011;2737;52.386;9.980;2022-10-31T00:34:29;10.77;;;4.93;;
5428;SDS011;2737;52.386;9.980;2022-10-31T00:36:56;8.67;;;4.37;;
5428;SDS011;2737;52.386;9.980;2022-10-31T00:39:23;14.47;;;5.23;;
5428;SDS011;2737;52.386;9.980;2022-10-31T00:41:52;11.80;;;5.80;;
5428;SDS011;2737;52.386;9.980;2022-10-31T00:44:19;13.80;;;5.70;;
5428;SDS011;2737;52.386;9.980;2022-10-31T00:46:46;16.60;;;5.30;;
5428;SDS011;2737;52.386;9.980;2022-10-31T00:49:12;13.80;;;5.33;;
5428;SDS011;2737;52.386;9.980;2022-10-31T00:51:40;13.57;;;5.33;;
5428;SDS011;2737;52.386;9.980;2022-10-31T00:54:07;13.37;;;5.37;;
5428;SDS011;2737;52.386;9.980;2022-10-31T00:56:34;13.20;;;5.90;;
5428;SDS011;2737;52.386;9.980;2022-10-31T00:59:03;12.77;;;5.90;;
5428;SDS011;2737;52.386;9.980;2022-10-31T01:01:30;14.60;;;5.70;;
5428;SDS011;2737;52.386;9.980;2022-10-31T01:03:57;13.97;;;6.30;;
5428;SDS011;2737;52.386;9.980;2022-10-31T01:06:24;16.23;;;6.10;;
5428;SDS011;2737;52.386;9.980;2022-10-31T01:08:51;19.30;;;6.80;;
5428;SDS011;2737;52.386;9.980;2022-10-31T01:11:19;16.53;;;7.67;;
5428;SDS011;2737;52.386;9.980;2022-10-31T01:13:47;17.23;;;6.30;;
5428;SDS011;2737;52.386;9.980;2022-10-31T01:16:19;15.90;;;8.00;;
5428;SDS011;2737;52.386;9.980;2022-10-31T01:18:47;16.47;;;7.37;;
5428;SDS011;2737;52.386;9.980;2022-10-31T01:21:15;18.30;;;8.50;;
5428;SDS011;2737;52.386;9.980;2022-10-31T01:23:43;24.90;;;9.30;;
5428;SDS011;2737;52.386;9.980;2022-10-31T01:26:11;18.33;;;8.50;;
5428;SDS011;2737;52.386;9.980;2022-10-31T01:28:45;22.07;;;8.97;;
5428;SDS011;2737;52.386;9.980;2022-10-31T01:31:14;24.17;;;9.23;;
5428;SDS011;2737;52.386;9.980;2022-10-31T01:33:44;21.17;;;9.70;;
5428;SDS011;2737;52.386;9.980;2022-10-31T01:36:12;24.30;;;9.00;;
5428;SDS011;2737;52.386;9.980;2022-10-31T01:38:42;27.17;;;10.30;;
5428;SDS011;2737;52.386;9.980;2022-10-31T01:41:09;24.37;;;11.00;;
5428;SDS011;2737;52.386;9.980;2022-10-31T01:43:45;21.37;;;12.53;;
5428;SDS011;2737;52.386;9.980;2022-10-31T01:46:13;23.90;;;11.77;;
5428;SDS011;2737;52.386;9.980;2022-10-31T01:48:45;19.23;;;11.60;;
5428;SDS011;2737;52.386;9.980;2022-10-31T01:51:12;28.20;;;12.63;;
5428;SDS011;2737;52.386;9.980;2022-10-31T01:53:44;37.87;;;14.73;;
5428;SDS011;2737;52.386;9.980;2022-10-31T01:56:11;27.17;;;13.40;;
5428;SDS011;2737;52.386;9.980;2022-10-31T01:58:40;27.13;;;14.00;;
5428;SDS011;2737;52.386;9.980;2022-10-31T02:01:07;31.30;;;15.00;;
5428;SDS011;2737;52.386;9.980;2022-10-31T02:03:35;30.40;;;14.50;;
5428;SDS011;2737;52.386;9.980;2022-10-31T02:06:03;32.37;;;14.90;;
5428;SDS011;2737;52.386;9.980;2022-10-31T02:08:36;36.40;;;14.70;;
5428;SDS011;2737;52.386;9.980;2022-10-31T02:11:05;30.43;;;15.60;;
5428;SDS011;2737;52.386;9.980;2022-10-31T02:13:34;34.10;;;16.37;;
5428;SDS011;2737;52.386;9.980;2022-10-31T02:16:01;35.77;;;16.37;;
5428;SDS011;2737;52.386;9.980;2022-10-31T02:18:29;35.73;;;17.60;;
5428;SDS011;2737;52.386;9.980;2022-10-31T02:21:02;35.30;;;16.60;;
5428;SDS011;2737;52.386;9.980;2022-10-31T02:23:45;32.63;;;17.83;;
5428;SDS011;2737;52.386;9.980;2022-10-31T02:29:53;39.17;;;18.13;;
5428;SDS011;2737;52.386;9.980;2022-10-31T02:32:32;41.13;;;20.10;;
5428;SDS011;2737;52.386;9.980;2022-10-31T02:35:13;37.83;;;18.63;;
5428;SDS011;2737;52.386;9.980;2022-10-31T02:37:53;47.17;;;22.63;;
5428;SDS011;2737;52.386;9.980;2022-10-31T02:40:25;44.93;;;19.97;;
5428;SDS011;2737;52.386;9.980;2022-10-31T02:42:59;45.83;;;21.50;;
5428;SDS011;2737;52.386;9.980;2022-10-31T02:45:32;50.33;;;22.10;;
5428;SDS011;2737;52.386;9.980;2022-10-31T02:48:08;48.00;;;22.37;;
5428;SDS011;2737;52.386;9.980;2022-10-31T02:50:39;42.17;;;21.60;;
5428;SDS011;2737;52.386;9.980;2022-10-31T02:53:08;41.07;;;20.00;;
5428;SDS011;2737;52.386;9.980;2022-10-31T02:55:46;53.70;;;19.50;;
5428;SDS011;2737;52.386;9.980;2022-10-31T02:58:24;45.47;;;22.57;;
5428;SDS011;2737;52.386;9.980;2022-10-31T03:04:02;38.03;;;20.17;;
5428;SDS011;2737;52.386;9.980;2022-10-31T03:06:51;36.23;;;19.03;;
5428;SDS011;2737;52.386;9.980;2022-10-31T03:09:23;48.00;;;21.00;;
5428;SDS011;2737;52.386;9.980;2022-10-31T03:11:54;55.30;;;22.57;;
5428;SDS011;2737;52.386;9.980;2022-10-31T03:14:26;42.80;;;21.53;;
5428;SDS011;2737;52.386;9.980;2022-10-31T03:17:01;42.30;;;21.17;;
5428;SDS011;2737;52.386;9.980;2022-10-31T03:19:34;38.97;;;21.60;;
5428;SDS011;2737;52.386;9.980;2022-10-31T03:22:07;45.83;;;22.70;;
5428;SDS011;2737;52.386;9.980;2022-10-31T03:24:41;48.80;;;23.27;;
5428;SDS011;2737;52.386;9.980;2022-10-31T03:27:10;46.93;;;22.30;;
5428;SDS011;2737;52.386;9.980;2022-10-31T03:29:42;44.73;;;22.70;;
5428;SDS011;2737;52.386;9.980;2022-10-31T03:32:12;43.63;;;22.67;;
5428;SDS011;2737;52.386;9.980;2022-10-31T03:34:45;44.27;;;20.30;;
5428;SDS011;2737;52.386;9.980;2022-10-31T03:37:14;52.03;;;22.73;;
5428;SDS011;2737;52.386;9.980;2022-10-31T03:39:45;41.93;;;22.30;;
5428;SDS011;2737;52.386;9.980;2022-10-31T03:42:15;43.30;;;21.63;;
5428;SDS011;2737;52.386;9.980;2022-10-31T03:44:46;37.87;;;20.87;;
5428;SDS011;2737;52.386;9.980;2022-10-31T03:47:19;46.10;;;21.20;;
5428;SDS011;2737;52.386;9.980;2022-10-31T03:49:48;38.80;;;20.57;;
5428;SDS011;2737;52.386;9.980;2022-10-31T03:52:18;38.50;;;22.20;;
5428;SDS011;2737;52.386;9.980;2022-10-31T03:54:52;48.40;;;23.03;;
5428;SDS011;2737;52.386;9.980;2022-10-31T03:57:24;47.57;;;22.80;;
5428;SDS011;2737;52.386;9.980;2022-10-31T03:59:56;44.97;;;23.63;;
5428;SDS011;2737;52.386;9.980;2022-10-31T04:02:29;45.67;;;24.20;;
5428;SDS011;2737;52.386;9.980;2022-10-31T04:04:59;52.37;;;23.63;;
5428;SDS011;2737;52.386;9.980;2022-10-31T04:07:29;53.73;;;23.97;;
5428;SDS011;2737;52.386;9.980;2022-10-31T04:10:00;45.80;;;21.47;;
5428;SDS011;2737;52.386;9.980;2022-10-31T04:12:29;41.57;;;21.93;;
5428;SDS011;2737;52.386;9.980;2022-10-31T04:14:58;41.10;;;20.80;;
5428;SDS011;2737;52.386;9.980;2022-10-31T04:17:29;47.43;;;21.67;;
5428;SDS011;2737;52.386;9.980;2022-10-31T04:20:02;35.53;;;19.60;;
5428;SDS011;2737;52.386;9.980;2022-10-31T04:22:30;39.80;;;21.03;;
5428;SDS011;2737;52.386;9.980;2022-10-31T04:24:57;40.60;;;20.80;;
5428;SDS011;2737;52.386;9.980;2022-10-31T04:27:25;42.97;;;20.93;;
5428;SDS011;2737;52.386;9.980;2022-10-31T04:29:52;41.00;;;20.60;;
5428;SDS011;2737;52.386;9.980;2022-10-31T04:32:19;44.33;;;21.57;;
5428;SDS011;2737;52.386;9.980;2022-10-31T04:34:46;44.83;;;21.07;;
5428;SDS011;2737;52.386;9.980;2022-10-31T04:37:14;41.43;;;19.50;;
5428;SDS011;2737;52.386;9.980;2022-10-31T04:39:41;40.50;;;20.10;;
5428;SDS011;2737;52.386;9.980;2022-10-31T04:42:08;47.53;;;23.40;;
5428;SDS011;2737;52.386;9.980;2022-10-31T04:44:35;42.67;;;20.23;;
5428;SDS011;2737;52.386;9.980;2022-10-31T04:47:02;38.93;;;21.13;;
5428;SDS011;2737;52.386;9.980;2022-10-31T04:49:29;45.97;;;21.83;;
5428;SDS011;2737;52.386;9.980;2022-10-31T04:51:56;40.20;;;21.03;;
5428;SDS011;2737;52.386;9.980;2022-10-31T04:54:25;36.40;;;21.33;;
5428;SDS011;2737;52.386;9.980;2022-10-31T04:56:52;38.73;;;21.30;;
5428;SDS011;2737;52.386;9.980;2022-10-31T04:59:19;40.80;;;20.43;;
5428;SDS011;2737;52.386;9.980;2022-10-31T05:01:46;43.40;;;21.50;;
5428;SDS011;2737;52.386;9.980;2022-10-31T05:04:13;39.10;;;19.60;;
5428;SDS011;2737;52.386;9.980;2022-10-31T05:06:40;38.27;;;20.00;;
5428;SDS011;2737;52.386;9.980;2022-10-31T05:09:07;41.50;;;20.80;;
5428;SDS011;2737;52.386;9.980;2022-10-31T05:11:35;35.30;;;19.40;;
5428;SDS011;2737;52.386;9.980;2022-10-31T05:14:02;39.37;;;20.30;;
5428;SDS011;2737;52.386;9.980;2022-10-31T05:16:29;34.70;;;18.90;;
5428;SDS011;2737;52.386;9.980;2022-10-31T05:18:56;42.93;;;20.70;;
5428;SDS011;2737;52.386;9.980;2022-10-31T05:21:23;37.80;;;19.10;;
5428;SDS011;2737;52.386;9.980;2022-10-31T05:23:50;45.63;;;20.57;;
5428;SDS011;2737;52.386;9.980;2022-10-31T05:26:18;37.17;;;19.50;;
5428;SDS011;2737;52.386;9.980;2022-10-31T05:28:46;37.10;;;18.33;;
5428;SDS011;2737;52.386;9.980;2022-10-31T05:31:13;38.47;;;18.80;;
5428;SDS011;2737;52.386;9.980;2022-10-31T05:33:40;39.93;;;18.37;;
5428;SDS011;2737;52.386;9.980;2022-10-31T05:36:08;39.60;;;18.30;;
5428;SDS011;2737;52.386;9.980;2022-10-31T05:38:35;47.37;;;20.30;;
5428;SDS011;2737;52.386;9.980;2022-10-31T05:41:02;42.47;;;18.73;;
5428;SDS011;2737;52.386;9.980;2022-10-31T05:43:29;35.97;;;18.37;;
5428;SDS011;2737;52.386;9.980;2022-10-31T05:46:00;44.13;;;18.60;;
5428;SDS011;2737;52.386;9.980;2022-10-31T05:48:27;42.30;;;18.33;;
5428;SDS011;2737;52.386;9.980;2022-10-31T05:50:54;38.03;;;20.13;;
5428;SDS011;2737;52.386;9.980;2022-10-31T05:53:21;45.00;;;22.20;;
5428;SDS011;2737;52.386;9.980;2022-10-31T05:55:48;47.50;;;22.57;;
5428;SDS011;2737;52.386;9.980;2022-10-31T05:58:15;47.97;;;20.80;;
5428;SDS011;2737;52.386;9.980;2022-10-31T06:00:42;37.40;;;20.23;;
5428;SDS011;2737;52.386;9.980;2022-10-31T06:03:11;42.33;;;22.53;;
5428;SDS011;2737;52.386;9.980;2022-10-31T06:05:38;54.37;;;26.33;;
5428;SDS011;2737;52.386;9.980;2022-10-31T06:08:05;65.17;;;26.70;;
5428;SDS011;2737;52.386;9.980;2022-10-31T06:10:32;47.17;;;24.10;;
5428;SDS011;2737;52.386;9.980;2022-10-31T06:12:59;42.17;;;23.57;;
5428;SDS011;2737;52.386;9.980;2022-10-31T06:15:26;53.80;;;25.57;;
5428;SDS011;2737;52.386;9.980;2022-10-31T06:18:00;43.07;;;23.10;;
5428;SDS011;2737;52.386;9.980;2022-10-31T06:20:29;40.70;;;21.30;;
5428;SDS011;2737;52.386;9.980;2022-10-31T06:22:57;34.80;;;19.73;;
5428;SDS011;2737;52.386;9.980;2022-10-31T06:25:24;43.73;;;19.73;;
5428;SDS011;2737;52.386;9.980;2022-10-31T06:27:51;39.80;;;19.57;;
5428;SDS011;2737;52.386;9.980;2022-10-31T06:30:18;31.90;;;18.27;;
5428;SDS011;2737;52.386;9.980;2022-10-31T06:32:45;46.17;;;18.17;;
5428;SDS011;2737;52.386;9.980;2022-10-31T06:35:12;35.80;;;17.43;;
5428;SDS011;2737;52.386;9.980;2022-10-31T06:37:41;31.20;;;17.10;;
5428;SDS011;2737;52.386;9.980;2022-10-31T06:40:08;30.13;;;17.00;;
5428;SDS011;2737;52.386;9.980;2022-10-31T06:42:36;33.63;;;17.20;;
5428;SDS011;2737;52.386;9.980;2022-10-31T06:45:03;35.60;;;17.73;;
5428;SDS011;2737;52.386;9.980;2022-10-31T06:47:31;35.60;;;18.87;;
5428;SDS011;2737;52.386;9.980;2022-10-31T06:49:58;35.33;;;17.70;;
5428;SDS011;2737;52.386;9.980;2022-10-31T06:52:25;40.60;;;18.70;;
5428;SDS011;2737;52.386;9.980;2022-10-31T06:54:53;34.20;;;18.53;;
5428;SDS011;2737;52.386;9.980;2022-10-31T06:57:20;30.40;;;17.63;;
5428;SDS011;2737;52.386;9.980;2022-10-31T06:59:47;35.63;;;17.50;;
5428;SDS011;2737;52.386;9.980;2022-10-31T07:02:14;34.60;;;18.27;;
5428;SDS011;2737;52.386;9.980;2022-10-31T07:04:41;37.77;;;18.00;;
5428;SDS011;2737;52.386;9.980;2022-10-31T07:07:08;31.20;;;16.30;;
5428;SDS011;2737;52.386;9.980;2022-10-31T07:09:35;30.83;;;17.27;;
5428;SDS011;2737;52.386;9.980;2022-10-31T07:12:04;32.43;;;17.17;;
5428;SDS011;2737;52.386;9.980;2022-10-31T07:14:31;30.57;;;17.27;;
5428;SDS011;2737;52.386;9.980;2022-10-31T07:16:58;26.67;;;16.47;;
5428;SDS011;2737;52.386;9.980;2022-10-31T07:19:25;33.20;;;16.50;;
5428;SDS011;2737;52.386;9.980;2022-10-31T07:21:52;29.30;;;16.97;;
5428;SDS011;2737;52.386;9.980;2022-10-31T07:24:19;36.80;;;18.07;;
5428;SDS011;2737;52.386;9.980;2022-10-31T07:26:46;31.03;;;16.00;;
5428;SDS011;2737;52.386;9.980;2022-10-31T07:29:15;31.60;;;16.20;;
5428;SDS011;2737;52.386;9.980;2022-10-31T07:31:42;31.27;;;16.90;;
5428;SDS011;2737;52.386;9.980;2022-10-31T07:34:11;36.23;;;18.50;;
5428;SDS011;2737;52.386;9.980;2022-10-31T07:36:38;32.77;;;18.23;;
5428;SDS011;2737;52.386;9.980;2022-10-31T07:39:05;33.23;;;18.57;;
5428;SDS011;2737;52.386;9.980;2022-10-31T07:41:32;34.00;;;17.60;;
5428;SDS011;2737;52.386;9.980;2022-10-31T07:43:59;36.50;;;17.37;;
5428;SDS011;2737;52.386;9.980;2022-10-31T07:46:28;31.70;;;17.97;;
5428;SDS011;2737;52.386;9.980;2022-10-31T07:48:55;34.47;;;17.90;;
5428;SDS011;2737;52.386;9.980;2022-10-31T07:51:22;35.57;;;18.10;;
5428;SDS011;2737;52.386;9.980;2022-10-31T07:53:49;34.10;;;17.47;;
5428;SDS011;2737;52.386;9.980;2022-10-31T07:56:16;33.17;;;18.80;;
5428;SDS011;2737;52.386;9.980;2022-10-31T07:58:43;35.93;;;17.50;;
5428;SDS011;2737;52.386;9.980;2022-10-31T08:01:10;29.40;;;17.07;;
5428;SDS011;2737;52.386;9.980;2022-10-31T08:03:39;36.33;;;18.40;;
5428;SDS011;2737;52.386;9.980;2022-10-31T08:06:06;33.90;;;16.87;;
5428;SDS011;2737;52.386;9.980;2022-10-31T08:08:33;29.63;;;16.73;;
5428;SDS011;2737;52.386;9.980;2022-10-31T08:11:00;30.60;;;15.93;;
5428;SDS011;2737;52.386;9.980;2022-10-31T08:13:27;31.43;;;18.37;;
5428;SDS011;2737;52.386;9.980;2022-10-31T08:15:54;37.70;;;17.37;;
5428;SDS011;2737;52.386;9.980;2022-10-31T08:18:21;31.23;;;17.30;;
5428;SDS011;2737;52.386;9.980;2022-10-31T08:20:50;36.47;;;17.70;;
5428;SDS011;2737;52.386;9.980;2022-10-31T08:23:17;35.37;;;19.60;;
5428;SDS011;2737;52.386;9.980;2022-10-31T08:25:44;34.43;;;17.83;;
5428;SDS011;2737;52.386;9.980;2022-10-31T08:28:12;40.93;;;20.40;;
5428;SDS011;2737;52.386;9.980;2022-10-31T08:30:40;43.57;;;19.80;;
5428;SDS011;2737;52.386;9.980;2022-10-31T08:33:09;37.37;;;18.90;;
5428;SDS011;2737;52.386;9.980;2022-10-31T08:35:37;47.37;;;23.27;;
5428;SDS011;2737;52.386;9.980;2022-10-31T08:38:06;44.80;;;21.97;;
5428;SDS011;2737;52.386;9.980;2022-10-31T08:40:35;44.73;;;22.33;;
5428;SDS011;2737;52.386;9.980;2022-10-31T08:43:02;39.63;;;20.87;;
5428;SDS011;2737;52.386;9.980;2022-10-31T08:45:32;33.67;;;18.70;;
5428;SDS011;2737;52.386;9.980;2022-10-31T08:48:00;45.77;;;21.20;;
5428;SDS011;2737;52.386;9.980;2022-10-31T08:50:29;46.70;;;20.60;;
5428;SDS011;2737;52.386;9.980;2022-10-31T08:53:01;41.63;;;20.53;;
5428;SDS011;2737;52.386;9.980;2022-10-31T08:55:29;40.10;;;20.60;;
5428;SDS011;2737;52.386;9.980;2022-10-31T08:57:56;39.50;;;18.30;;
5428;SDS011;2737;52.386;9.980;2022-10-31T09:00:24;37.77;;;19.87;;
5428;SDS011;2737;52.386;9.980;2022-10-31T09:02:55;45.73;;;20.43;;
5428;SDS011;2737;52.386;9.980;2022-10-31T09:05:23;42.97;;;20.07;;
5428;SDS011;2737;52.386;9.980;2022-10-31T09:07:50;42.33;;;20.80;;
5428;SDS011;2737;52.386;9.980;2022-10-31T09:10:17;32.87;;;18.20;;
5428;SDS011;2737;52.386;9.980;2022-10-31T09:12:45;42.73;;;20.80;;
5428;SDS011;2737;52.386;9.980;2022-10-31T09:15:12;44.50;;;18.67;;
5428;SDS011;2737;52.386;9.980;2022-10-31T09:17:45;44.60;;;19.97;;
5428;SDS011;2737;52.386;9.980;2022-10-31T09:20:13;34.80;;;18.70;;
5428;SDS011;2737;52.386;9.980;2022-10-31T09:22:40;39.73;;;20.10;;
5428;SDS011;2737;52.386;9.980;2022-10-31T09:25:07;43.23;;;19.40;;
5428;SDS011;2737;52.386;9.980;2022-10-31T09:27:35;50.03;;;21.40;;
5428;SDS011;2737;52.386;9.980;2022-10-31T09:30:03;41.20;;;18.63;;
5428;SDS011;2737;52.386;9.980;2022-10-31T09:32:31;38.27;;;19.40;;
5428;SDS011;2737;52.386;9.980;2022-10-31T09:34:58;41.63;;;18.43;;
5428;SDS011;2737;52.386;9.980;2022-10-31T09:37:25;41.80;;;20.30;;
5428;SDS011;2737;52.386;9.980;2022-10-31T09:39:52;43.60;;;19.73;;
5428;SDS011;2737;52.386;9.980;2022-10-31T09:42:28;40.07;;;20.57;;
5428;SDS011;2737;52.386;9.980;2022-10-31T09:45:13;41.57;;;21.77;;
5428;SDS011;2737;52.386;9.980;2022-10-31T09:47:48;41.33;;;20.70;;
5428;SDS011;2737;52.386;9.980;2022-10-31T09:50:25;45.97;;;20.73;;
5428;SDS011;2737;52.386;9.980;2022-10-31T09:52:58;38.93;;;18.47;;
5428;SDS011;2737;52.386;9.980;2022-10-31T09:55:31;46.27;;;21.60;;
5428;SDS011;2737;52.386;9.980;2022-10-31T09:58:03;48.30;;;22.10;;
5428;SDS011;2737;52.386;9.980;2022-10-31T10:00:32;43.67;;;19.40;;
5428;SDS011;2737;52.386;9.980;2022-10-31T10:03:02;40.50;;;20.23;;
5428;SDS011;2737;52.386;9.980;2022-10-31T10:05:36;45.47;;;21.77;;
5428;SDS011;2737;52.386;9.980;2022-10-31T10:08:07;38.73;;;20.50;;
5428;SDS011;2737;52.386;9.980;2022-10-31T10:10:43;39.60;;;20.20;;
5428;SDS011;2737;52.386;9.980;2022-10-31T10:13:19;37.30;;;20.13;;
5428;SDS011;2737;52.386;9.980;2022-10-31T10:16:13;37.33;;;18.93;;
5428;SDS011;2737;52.386;9.980;2022-10-31T10:18:54;45.60;;;20.57;;
5428;SDS011;2737;52.386;9.980;2022-10-31T10:21:36;40.37;;;17.77;;
5428;SDS011;2737;52.386;9.980;2022-10-31T10:24:12;42.67;;;19.30;;
5428;SDS011;2737;52.386;9.980;2022-10-31T10:26:50;40.53;;;18.40;;
5428;SDS011;2737;52.386;9.980;2022-10-31T10:29:28;38.47;;;18.60;;
5428;SDS011;2737;52.386;9.980;2022-10-31T10:32:01;37.83;;;17.90;;
5428;SDS011;2737;52.386;9.980;2022-10-31T10:34:37;38.70;;;18.93;;
5428;SDS011;2737;52.386;9.980;2022-10-31T10:37:12;29.87;;;16.87;;
5428;SDS011;2737;52.386;9.980;2022-10-31T10:39:46;35.07;;;17.40;;
5428;SDS011;2737;52.386;9.980;2022-10-31T10:42:17;35.23;;;18.73;;
5428;SDS011;2737;52.386;9.980;2022-10-31T10:45:06;37.00;;;18.60;;
5428;SDS011;2737;52.386;9.980;2022-10-31T10:48:00;35.60;;;16.70;;
5428;SDS011;2737;52.386;9.980;2022-10-31T10:50:35;36.47;;;17.20;;
5428;SDS011;2737;52.386;9.980;2022-10-31T10:53:07;34.07;;;17.00;;
5428;SDS011;2737;52.386;9.980;2022-10-31T10:55:59;34.37;;;16.03;;
5428;SDS011;2737;52.386;9.980;2022-10-31T10:58:34;43.43;;;16.10;;
5428;SDS011;2737;52.386;9.980;2022-10-31T11:01:08;36.80;;;16.47;;
5428;SDS011;2737;52.386;9.980;2022-10-31T11:03:39;32.57;;;15.97;;
5428;SDS011;2737;52.386;9.980;2022-10-31T11:06:15;30.93;;;14.73;;
5428;SDS011;2737;52.386;9.980;2022-10-31T11:08:47;27.43;;;14.17;;
5428;SDS011;2737;52.386;9.980;2022-10-31T11:11:19;30.17;;;14.80;;
5428;SDS011;2737;52.386;9.980;2022-10-31T11:13:52;43.57;;;14.40;;
5428;SDS011;2737;52.386;9.980;2022-10-31T11:16:28;28.90;;;14.40;;
5428;SDS011;2737;52.386;9.980;2022-10-31T11:21:45;34.80;;;14.17;;
5428;SDS011;2737;52.386;9.980;2022-10-31T11:24:14;26.93;;;12.57;;
5428;SDS011;2737;52.386;9.980;2022-10-31T11:26:43;26.47;;;12.67;;
5428;SDS011;2737;52.386;9.980;2022-10-31T11:29:13;36.37;;;13.43;;
5428;SDS011;2737;52.386;9.980;2022-10-31T11:31:43;27.37;;;13.43;;
5428;SDS011;2737;52.386;9.980;2022-10-31T11:34:18;28.73;;;12.83;;
5428;SDS011;2737;52.386;9.980;2022-10-31T11:36:54;30.40;;;13.13;;
5428;SDS011;2737;52.386;9.980;2022-10-31T11:39:27;33.33;;;14.17;;
5428;SDS011;2737;52.386;9.980;2022-10-31T11:41:54;26.23;;;11.60;;
5428;SDS011;2737;52.386;9.980;2022-10-31T11:44:26;32.47;;;13.13;;
5428;SDS011;2737;52.386;9.980;2022-10-31T11:46:56;26.97;;;12.50;;
5428;SDS011;2737;52.386;9.980;2022-10-31T11:49:28;30.87;;;13.23;;
5428;SDS011;2737;52.386;9.980;2022-10-31T11:52:04;27.47;;;12.10;;
5428;SDS011;2737;52.386;9.980;2022-10-31T11:54:34;26.67;;;12.00;;
5428;SDS011;2737;52.386;9.980;2022-10-31T11:57:23;34.37;;;13.90;;
5428;SDS011;2737;52.386;9.980;2022-10-31T11:59:52;30.23;;;13.70;;
5428;SDS011;2737;52.386;9.980;2022-10-31T12:02:21;28.77;;;13.50;;
5428;SDS011;2737;52.386;9.980;2022-10-31T12:04:50;26.30;;;12.60;;
5428;SDS011;2737;52.386;9.980;2022-10-31T12:07:22;32.30;;;15.30;;
5428;SDS011;2737;52.386;9.980;2022-10-31T12:09:49;26.57;;;14.60;;
5428;SDS011;2737;52.386;9.980;2022-10-31T12:12:21;32.67;;;14.43;;
5428;SDS011;2737;52.386;9.980;2022-10-31T12:15:13;28.70;;;13.93;;
5428;SDS011;2737;52.386;9.980;2022-10-31T12:17:52;35.50;;;15.20;;
5428;SDS011;2737;52.386;9.980;2022-10-31T12:20:28;50.97;;;18.10;;
5428;SDS011;2737;52.386;9.980;2022-10-31T12:23:09;30.40;;;16.63;;
5428;SDS011;2737;52.386;9.980;2022-10-31T12:25:44;36.27;;;18.17;;
5428;SDS011;2737;52.386;9.980;2022-10-31T12:31:29;43.03;;;18.10;;
5428;SDS011;2737;52.386;9.980;2022-10-31T12:37:24;36.60;;;16.87;;
5428;SDS011;2737;52.386;9.980;2022-10-31T12:40:01;30.93;;;17.17;;
5428;SDS011;2737;52.386;9.980;2022-10-31T12:42:45;41.13;;;18.17;;
5428;SDS011;2737;52.386;9.980;2022-10-31T12:45:30;43.83;;;18.87;;
5428;SDS011;2737;52.386;9.980;2022-10-31T12:51:11;39.73;;;20.07;;
5428;SDS011;2737;52.386;9.980;2022-10-31T12:53:49;35.73;;;19.47;;
5428;SDS011;2737;52.386;9.980;2022-10-31T12:56:27;44.43;;;19.40;;
5428;SDS011;2737;52.386;9.980;2022-10-31T12:59:08;50.20;;;22.27;;
5428;SDS011;2737;52.386;9.980;2022-10-31T13:01:40;39.33;;;20.27;;
5428;SDS011;2737;52.386;9.980;2022-10-31T13:04:15;36.90;;;19.63;;
5428;SDS011;2737;52.386;9.980;2022-10-31T13:06:48;42.00;;;20.77;;
5428;SDS011;2737;52.386;9.980;2022-10-31T13:09:19;43.87;;;20.20;;
5428;SDS011;2737;52.386;9.980;2022-10-31T13:11:51;44.93;;;20.93;;
5428;SDS011;2737;52.386;9.980;2022-10-31T13:14:23;44.27;;;20.63;;
5428;SDS011;2737;52.386;9.980;2022-10-31T13:16:53;43.50;;;20.30;;
5428;SDS011;2737;52.386;9.980;2022-10-31T13:19:23;46.77;;;20.90;;
5428;SDS011;2737;52.386;9.980;2022-10-31T13:21:55;38.63;;;17.80;;
5428;SDS011;2737;52.386;9.980;2022-10-31T13:24:30;39.17;;;20.70;;
5428;SDS011;2737;52.386;9.980;2022-10-31T13:27:01;38.13;;;17.43;;
5428;SDS011;2737;52.386;9.980;2022-10-31T13:29:35;40.83;;;17.03;;
5428;SDS011;2737;52.386;9.980;2022-10-31T13:32:06;43.03;;;19.07;;
5428;SDS011;2737;52.386;9.980;2022-10-31T13:34:35;37.03;;;18.47;;
5428;SDS011;2737;52.386;9.980;2022-10-31T13:37:06;37.00;;;19.73;;
5428;SDS011;2737;52.386;9.980;2022-10-31T13:42:37;35.67;;;20.23;;
5428;SDS011;2737;52.386;9.980;2022-10-31T13:45:15;44.80;;;21.00;;
5428;SDS011;2737;52.386;9.980;2022-10-31T13:47:54;46.47;;;22.03;;
5428;SDS011;2737;52.386;9.980;2022-10-31T13:50:23;47.07;;;21.50;;
5428;SDS011;2737;52.386;9.980;2022-10-31T13:52:52;41.47;;;21.30;;
5428;SDS011;2737;52.386;9.980;2022-10-31T13:55:38;39.83;;;19.73;;
5428;SDS011;2737;52.386;9.980;2022-10-31T13:58:19;41.57;;;20.63;;
5428;SDS011;2737;52.386;9.980;2022-10-31T14:00:57;42.67;;;21.30;;
5428;SDS011;2737;52.386;9.980;2022-10-31T14:03:36;42.30;;;19.63;;
5428;SDS011;2737;52.386;9.980;2022-10-31T14:06:05;38.60;;;20.30;;
5428;SDS011;2737;52.386;9.980;2022-10-31T14:08:34;43.77;;;20.33;;
5428;SDS011;2737;52.386;9.980;2022-10-31T14:11:07;39.97;;;20.07;;
5428;SDS011;2737;52.386;9.980;2022-10-31T14:13:36;47.33;;;18.90;;
5428;SDS011;2737;52.386;9.980;2022-10-31T14:16:16;50.17;;;21.07;;
5428;SDS011;2737;52.386;9.980;2022-10-31T14:18:47;40.20;;;19.80;;
5428;SDS011;2737;52.386;9.980;2022-10-31T14:21:25;47.97;;;20.57;;
5428;SDS011;2737;52.386;9.980;2022-10-31T14:23:54;40.30;;;18.77;;
5428;SDS011;2737;52.386;9.980;2022-10-31T14:26:34;43.73;;;20.30;;
5428;SDS011;2737;52.386;9.980;2022-10-31T14:29:03;44.50;;;19.40;;
5428;SDS011;2737;52.386;9.980;2022-10-31T14:31:57;37.03;;;18.00;;
5428;SDS011;2737;52.386;9.980;2022-10-31T14:34:29;33.70;;;17.17;;
5428;SDS011;2737;52.386;9.980;2022-10-31T14:39:58;43.30;;;17.93;;
5428;SDS011;2737;52.386;9.980;2022-10-31T14:42:41;32.10;;;16.13;;
5428;SDS011;2737;52.386;9.980;2022-10-31T14:45:29;41.17;;;19.63;;
5428;SDS011;2737;52.386;9.980;2022-10-31T14:48:10;37.90;;;17.60;;
5428;SDS011;2737;52.386;9.980;2022-10-31T14:50:48;37.53;;;18.90;;
5428;SDS011;2737;52.386;9.980;2022-10-31T14:53:18;38.07;;;17.60;;
5428;SDS011;2737;52.386;9.980;2022-10-31T14:55:51;42.63;;;19.20;;
5428;SDS011;2737;52.386;9.980;2022-10-31T14:58:22;43.47;;;19.20;;
5428;SDS011;2737;52.386;9.980;2022-10-31T15:00:53;39.60;;;20.00;;
5428;SDS011;2737;52.386;9.980;2022-10-31T15:03:24;44.43;;;19.77;;
5428;SDS011;2737;52.386;9.980;2022-10-31T15:05:55;36.83;;;18.70;;
5428;SDS011;2737;52.386;9.980;2022-10-31T15:08:31;40.03;;;18.60;;
5428;SDS011;2737;52.386;9.980;2022-10-31T15:11:02;43.80;;;18.40;;
5428;SDS011;2737;52.386;9.980;2022-10-31T15:13:42;43.87;;;19.67;;
5428;SDS011;2737;52.386;9.980;2022-10-31T15:16:10;38.80;;;17.80;;
5428;SDS011;2737;52.386;9.980;2022-10-31T15:18:51;36.60;;;19.20;;
5428;SDS011;2737;52.386;9.980;2022-10-31T15:21:19;38.63;;;18.43;;
5428;SDS011;2737;52.386;9.980;2022-10-31T15:23:51;42.83;;;19.10;;
5428;SDS011;2737;52.386;9.980;2022-10-31T15:26:21;39.37;;;18.73;;
5428;SDS011;2737;52.386;9.980;2022-10-31T15:29:00;36.23;;;17.37;;
5428;SDS011;2737;52.386;9.980;2022-10-31T15:31:28;41.63;;;18.63;;
5428;SDS011;2737;52.386;9.980;2022-10-31T15:33:58;51.70;;;20.27;;
5428;SDS011;2737;52.386;9.980;2022-10-31T15:36:29;39.33;;;20.10;;